createdAt,value
2019-01-23T00:00:20.510Z,0.40
2019-01-23T00:02:48.902Z,0.40
2019-01-23T00:05:17.588Z,0.40
2019-01-23T00:07:46.863Z,0.40
2019-01-23T00:10:15.351Z,0.40
2019-01-23T00:12:43.978Z,0.40
2019-01-23T00:15:12.517Z,0.40
2019-01-23T00:17:40.937Z,0.40
2019-01-23T00:20:09.352Z,0.40
2019-01-23T00:22:38.310Z,0.40
2019-01-23T00:25:08.911Z,0.40
2019-01-23T00:27:37.587Z,0.40
2019-01-23T00:30:11.663Z,0.40
2019-01-23T00:32:40.335Z,0.40
2019-01-23T00:35:09.241Z,0.40
2019-01-23T00:37:37.948Z,0.40
2019-01-23T00:40:16.514Z,0.40
2019-01-23T00:42:45.099Z,0.40
2019-01-23T00:45:15.484Z,0.40
2019-01-23T00:47:43.978Z,0.40
2019-01-23T00:50:14.748Z,0.40
2019-01-23T00:52:43.524Z,0.40
2019-01-23T00:55:18.875Z,0.40
2019-01-23T00:57:47.305Z,0.40
2019-01-23T01:00:21.338Z,0.40
2019-01-23T01:02:50.071Z,0.40
2019-01-23T01:05:19.041Z,0.40
2019-01-23T01:07:47.838Z,0.40
2019-01-23T01:10:19.024Z,0.40
2019-01-23T01:12:47.544Z,0.30
2019-01-23T01:15:16.422Z,0.40
2019-01-23T01:17:45.017Z,0.30
2019-01-23T01:20:14.993Z,0.30
2019-01-23T01:22:43.934Z,0.30
2019-01-23T01:25:17.934Z,0.30
2019-01-23T01:27:46.608Z,0.30
2019-01-23T01:30:17.445Z,0.30
2019-01-23T01:32:45.954Z,0.30
2019-01-23T01:35:14.540Z,0.30
2019-01-23T01:37:43.347Z,0.30
2019-01-23T01:40:14.869Z,0.30
2019-01-23T01:42:43.357Z,0.30
2019-01-23T01:45:13.191Z,0.30
2019-01-23T01:47:42.058Z,0.30
2019-01-23T01:50:13.425Z,0.30
2019-01-23T01:52:42.258Z,0.30
2019-01-23T01:55:11.324Z,0.30
2019-01-23T01:57:39.972Z,0.30
2019-01-23T02:00:14.563Z,0.30
2019-01-23T02:02:43.532Z,0.40
2019-01-23T02:05:12.444Z,0.40
2019-01-23T02:07:41.160Z,0.40
2019-01-23T02:10:12.824Z,0.40
2019-01-23T02:12:42.572Z,0.40
2019-01-23T02:15:12.659Z,0.40
2019-01-23T02:17:41.866Z,0.40
2019-01-23T02:20:19.330Z,0.40
2019-01-23T02:22:47.777Z,0.40
2019-01-23T02:25:16.258Z,0.40
2019-01-23T02:27:45.745Z,0.40
2019-01-23T02:30:17.436Z,0.40
2019-01-23T02:32:47.578Z,0.40
2019-01-23T02:35:16.265Z,0.40
2019-01-23T02:37:45.241Z,0.40
2019-01-23T02:40:16.188Z,0.50
2019-01-23T02:42:44.686Z,0.50
2019-01-23T02:45:13.463Z,0.50
2019-01-23T02:47:42.147Z,0.50
2019-01-23T02:50:11.429Z,0.40
2019-01-23T02:52:40.115Z,0.40
2019-01-23T02:55:10.370Z,0.40
2019-01-23T02:57:38.835Z,0.40
2019-01-23T03:00:15.435Z,0.40
2019-01-23T03:02:43.994Z,0.40
2019-01-23T03:05:15.067Z,0.40
2019-01-23T03:07:43.553Z,0.40
2019-01-23T03:10:17.460Z,0.40
2019-01-23T03:12:45.974Z,0.40
2019-01-23T03:15:16.662Z,0.40
2019-01-23T03:17:45.131Z,0.40
2019-01-23T03:20:16.191Z,0.40
2019-01-23T03:22:44.838Z,0.40
2019-01-23T03:25:14.162Z,0.40
2019-01-23T03:27:42.645Z,0.40
2019-01-23T03:30:16.598Z,0.40
2019-01-23T03:32:45.390Z,0.40
2019-01-23T03:35:14.131Z,0.40
2019-01-23T03:37:43.610Z,0.40
2019-01-23T03:40:17.373Z,0.40
2019-01-23T03:42:46.002Z,0.40
2019-01-23T03:45:16.075Z,0.40
2019-01-23T03:47:45.064Z,0.40
2019-01-23T03:50:15.955Z,0.40
2019-01-23T03:52:44.758Z,0.40
2019-01-23T03:55:15.092Z,0.40
2019-01-23T03:57:43.911Z,0.40
2019-01-23T04:00:18.469Z,0.40
2019-01-23T04:02:47.942Z,0.40
2019-01-23T04:05:16.737Z,0.40
2019-01-23T04:07:45.496Z,0.40
2019-01-23T04:10:16.508Z,0.40
2019-01-23T04:12:46.084Z,0.40
2019-01-23T04:15:16.478Z,0.40
2019-01-23T04:17:45.460Z,0.40
2019-01-23T04:20:15.944Z,0.50
2019-01-23T04:22:44.728Z,0.50
2019-01-23T04:25:13.629Z,0.50
2019-01-23T04:27:42.319Z,0.40
2019-01-23T04:30:13.942Z,0.40
2019-01-23T04:32:42.458Z,0.40
2019-01-23T04:35:11.106Z,0.40
2019-01-23T04:37:39.767Z,0.40
2019-01-23T04:40:13.827Z,0.40
2019-01-23T04:42:42.560Z,0.40
2019-01-23T04:45:15.733Z,0.50
2019-01-23T04:47:44.518Z,0.50
2019-01-23T04:50:15.411Z,0.50
2019-01-23T04:53:00.785Z,0.50
2019-01-23T04:55:29.607Z,0.50
2019-01-23T04:57:58.026Z,0.40
2019-01-23T05:00:28.439Z,0.50
2019-01-23T05:02:57.121Z,0.40
2019-01-23T05:05:25.539Z,0.40
2019-01-23T05:07:54.000Z,0.40
2019-01-23T05:10:22.513Z,0.40
2019-01-23T05:12:51.157Z,0.40
2019-01-23T05:15:19.761Z,0.40
2019-01-23T05:17:48.436Z,0.40
2019-01-23T05:20:17.357Z,0.30
2019-01-23T05:22:46.058Z,0.30
2019-01-23T05:25:14.621Z,0.30
2019-01-23T05:27:43.282Z,0.30
2019-01-23T05:30:15.385Z,0.30
2019-01-23T05:32:44.090Z,0.30
2019-01-23T05:35:12.974Z,0.30
2019-01-23T05:37:41.446Z,0.30
2019-01-23T05:40:11.556Z,0.40
2019-01-23T05:42:40.037Z,0.40
2019-01-23T05:45:11.186Z,0.40
2019-01-23T05:47:39.601Z,0.40
2019-01-23T05:50:14.036Z,0.30
2019-01-23T05:52:42.918Z,0.30
2019-01-23T05:55:12.996Z,0.30
2019-01-23T05:57:41.482Z,0.30
2019-01-23T06:00:15.666Z,0.30
2019-01-23T06:02:44.483Z,0.30
2019-01-23T06:05:13.529Z,0.30
2019-01-23T06:07:42.217Z,0.30
2019-01-23T06:10:11.473Z,0.30
2019-01-23T06:12:40.215Z,0.20
2019-01-23T06:15:13.487Z,0.20
2019-01-23T06:17:42.039Z,0.20
2019-01-23T06:20:19.247Z,0.20
2019-01-23T06:22:47.819Z,0.20
2019-01-23T06:25:16.338Z,0.20
2019-01-23T06:27:44.769Z,0.20
2019-01-23T06:30:18.538Z,0.20
2019-01-23T06:32:47.172Z,0.20
2019-01-23T06:35:15.817Z,0.20
2019-01-23T06:37:44.617Z,0.20
2019-01-23T06:40:15.233Z,0.20
2019-01-23T06:42:43.976Z,0.20
2019-01-23T06:45:15.890Z,0.20
2019-01-23T06:47:44.468Z,0.20
2019-01-23T06:50:16.886Z,0.20
2019-01-23T06:52:45.471Z,0.20
2019-01-23T06:55:25.640Z,0.10
2019-01-23T06:57:56.670Z,0.10
2019-01-23T07:00:25.649Z,0.10
2019-01-23T07:02:54.236Z,0.10
2019-01-23T07:05:23.580Z,0.10
2019-01-23T07:07:52.057Z,0.10
2019-01-23T07:10:23.197Z,0.10
2019-01-23T07:12:51.632Z,0.20
2019-01-23T07:15:20.296Z,0.10
2019-01-23T07:17:48.800Z,0.10
2019-01-23T07:20:24.732Z,0.20
2019-01-23T07:22:53.150Z,0.20
2019-01-23T07:25:21.835Z,0.10
2019-01-23T07:27:50.431Z,0.10
2019-01-23T07:30:30.540Z,0.10
2019-01-23T07:32:59.234Z,0.10
2019-01-23T07:35:27.919Z,0.10
2019-01-23T07:37:56.368Z,0.10
2019-01-23T07:40:24.818Z,0.10
2019-01-23T07:42:53.265Z,0.10
2019-01-23T07:45:24.739Z,0.10
2019-01-23T07:47:53.744Z,0.10
2019-01-23T07:50:22.320Z,0.10
2019-01-23T07:52:50.913Z,0.10
2019-01-23T07:55:21.082Z,0.10
2019-01-23T07:57:49.895Z,0.10
2019-01-23T08:00:23.504Z,0.10
2019-01-23T08:02:52.703Z,0.10
2019-01-23T08:05:23.399Z,0.10
2019-01-23T08:07:51.999Z,0.10
2019-01-23T08:10:22.399Z,0.10
2019-01-23T08:12:52.103Z,0.10
2019-01-23T08:15:31.553Z,0.20
2019-01-23T08:18:00.436Z,0.20
2019-01-23T08:20:30.021Z,0.20
2019-01-23T08:23:00.007Z,0.20
2019-01-23T08:25:28.696Z,0.10
2019-01-23T08:27:57.657Z,0.10
2019-01-23T08:30:26.818Z,0.20
2019-01-23T08:32:55.308Z,0.20
2019-01-23T08:35:24.201Z,0.20
2019-01-23T08:37:52.714Z,0.30
2019-01-23T08:40:21.631Z,0.30
2019-01-23T08:42:50.022Z,0.30
2019-01-23T08:45:18.865Z,0.40
2019-01-23T08:47:47.525Z,0.40
2019-01-23T08:50:31.122Z,0.40
2019-01-23T08:52:59.616Z,0.40
2019-01-23T08:55:28.255Z,0.40
2019-01-23T08:57:56.768Z,0.40
2019-01-23T09:00:25.453Z,0.50
2019-01-23T09:02:53.845Z,0.50
2019-01-23T09:05:22.766Z,0.50
2019-01-23T09:07:51.410Z,0.50
2019-01-23T09:10:22.550Z,0.60
2019-01-23T09:12:51.989Z,0.60
2019-01-23T09:15:20.799Z,0.60
2019-01-23T09:17:49.278Z,0.60
2019-01-23T09:20:19.385Z,0.60
2019-01-23T09:22:48.132Z,0.60
2019-01-23T09:25:22.088Z,0.60
2019-01-23T09:27:50.576Z,0.60
2019-01-23T09:30:22.029Z,0.70
2019-01-23T09:33:10.152Z,0.70
2019-01-23T09:35:57.525Z,0.70
2019-01-23T09:38:48.560Z,0.70
2019-01-23T09:41:52.639Z,0.70
2019-01-23T09:44:43.170Z,0.70
2019-01-23T09:47:23.653Z,0.70
2019-01-23T09:50:06.803Z,0.70
2019-01-23T09:52:38.540Z,0.70
2019-01-23T09:55:09.601Z,0.80
2019-01-23T09:57:40.078Z,0.80
2019-01-23T10:00:14.147Z,0.80
2019-01-23T10:02:42.558Z,0.80
2019-01-23T10:05:11.444Z,0.90
2019-01-23T10:07:40.167Z,0.90
2019-01-23T10:10:14.428Z,0.90
2019-01-23T10:12:43.141Z,0.90
2019-01-23T10:15:14.759Z,0.90
2019-01-23T10:17:43.533Z,0.90
2019-01-23T10:20:12.710Z,0.90
2019-01-23T10:22:41.126Z,0.90
2019-01-23T10:25:09.710Z,0.90
2019-01-23T10:27:38.155Z,0.90
2019-01-23T10:30:09.994Z,1.00
2019-01-23T10:32:38.492Z,1.00
2019-01-23T10:35:10.397Z,1.00
2019-01-23T10:37:39.348Z,1.00
2019-01-23T10:40:11.187Z,1.00
2019-01-23T10:42:39.735Z,0.90
2019-01-23T10:45:10.297Z,1.00
2019-01-23T10:47:39.872Z,1.00
2019-01-23T10:50:14.510Z,1.00
2019-01-23T10:52:43.411Z,1.00
2019-01-23T10:55:11.912Z,1.10
2019-01-23T10:57:40.397Z,1.10
2019-01-23T11:00:17.261Z,1.10
2019-01-23T11:02:46.244Z,1.20
2019-01-23T11:05:20.200Z,1.20
2019-01-23T11:07:48.928Z,1.20
2019-01-23T11:10:25.042Z,1.20
2019-01-23T11:12:53.791Z,1.20
2019-01-23T11:15:22.638Z,1.30
2019-01-23T11:17:51.527Z,1.20
2019-01-23T11:20:20.691Z,1.20
2019-01-23T11:22:49.341Z,1.20
2019-01-23T11:25:17.920Z,1.20
2019-01-23T11:27:47.076Z,1.20
2019-01-23T11:30:21.389Z,1.20
2019-01-23T11:32:50.161Z,1.20
2019-01-23T11:35:18.769Z,1.20
2019-01-23T11:37:47.326Z,1.20
2019-01-23T11:40:21.985Z,1.30
2019-01-23T11:42:50.621Z,1.30
2019-01-23T11:45:19.099Z,1.30
2019-01-23T11:47:48.155Z,1.30
2019-01-23T11:50:21.775Z,1.20
2019-01-23T11:52:48.376Z,1.20
2019-01-23T11:55:17.323Z,1.10
2019-01-23T11:57:46.258Z,1.20
2019-01-23T12:00:24.844Z,1.20
2019-01-23T12:02:53.656Z,1.20
2019-01-23T12:05:23.701Z,1.20
2019-01-23T12:07:52.296Z,1.20
2019-01-23T12:10:23.833Z,1.20
2019-01-23T12:12:52.910Z,1.20
2019-01-23T12:15:23.417Z,1.20
2019-01-23T12:17:52.381Z,1.20
2019-01-23T12:20:21.220Z,1.20
2019-01-23T12:22:50.139Z,1.20
2019-01-23T12:25:18.656Z,1.20
2019-01-23T12:27:47.066Z,1.20
2019-01-23T12:30:24.833Z,1.20
2019-01-23T12:32:53.331Z,1.20
2019-01-23T12:35:22.280Z,1.20
2019-01-23T12:37:50.940Z,1.30
2019-01-23T12:40:19.509Z,1.40
2019-01-23T12:42:48.004Z,1.40
2019-01-23T12:45:19.652Z,1.40
2019-01-23T12:47:48.374Z,1.40
2019-01-23T12:50:20.229Z,1.40
2019-01-23T12:52:48.873Z,1.40
2019-01-23T12:55:17.820Z,1.30
2019-01-23T12:57:46.302Z,1.30
2019-01-23T13:00:18.317Z,1.30
2019-01-23T13:02:46.805Z,1.30
2019-01-23T13:05:19.892Z,1.30
2019-01-23T13:07:48.502Z,1.30
2019-01-23T13:10:24.458Z,1.30
2019-01-23T13:12:54.238Z,1.30
2019-01-23T13:15:27.877Z,1.20
2019-01-23T13:17:57.040Z,1.20
2019-01-23T13:20:27.669Z,1.20
2019-01-23T13:22:56.252Z,1.20
2019-01-23T13:25:26.651Z,1.20
2019-01-23T13:27:55.442Z,1.20
2019-01-23T13:30:25.790Z,1.20
2019-01-23T13:32:54.759Z,1.20
2019-01-23T13:35:26.135Z,1.20
2019-01-23T13:37:55.164Z,1.10
2019-01-23T13:40:26.883Z,1.10
2019-01-23T13:42:55.610Z,1.10
2019-01-23T13:45:24.193Z,1.10
2019-01-23T13:47:52.964Z,1.00
2019-01-23T13:50:21.934Z,1.00
2019-01-23T13:52:50.583Z,1.00
2019-01-23T13:55:22.995Z,1.00
2019-01-23T13:57:51.763Z,1.00
2019-01-23T14:00:29.251Z,1.00
2019-01-23T14:02:58.163Z,1.10
2019-01-23T14:05:26.710Z,1.10
2019-01-23T14:07:55.136Z,1.10
2019-01-23T14:10:23.930Z,1.10
2019-01-23T14:12:52.496Z,1.20
2019-01-23T14:15:29.494Z,1.20
2019-01-23T14:17:57.921Z,1.10
2019-01-23T14:20:26.449Z,1.10
2019-01-23T14:22:55.517Z,1.10
2019-01-23T14:25:24.396Z,1.00
2019-01-23T14:27:52.866Z,1.10
2019-01-23T14:30:24.825Z,1.10
2019-01-23T14:32:53.644Z,1.10
2019-01-23T14:35:22.104Z,1.10
2019-01-23T14:37:50.548Z,1.10
2019-01-23T14:40:19.039Z,1.10
2019-01-23T14:42:47.742Z,1.10
2019-01-23T14:45:17.867Z,1.10
2019-01-23T14:47:46.606Z,1.10
2019-01-23T14:50:16.955Z,1.10
2019-01-23T14:52:46.752Z,1.10
2019-01-23T14:55:15.518Z,1.10
2019-01-23T14:57:44.476Z,1.10
2019-01-23T15:00:16.520Z,1.10
2019-01-23T15:02:45.285Z,1.10
2019-01-23T15:05:15.980Z,1.10
2019-01-23T15:07:44.572Z,1.10
2019-01-23T15:10:16.561Z,1.10
2019-01-23T15:12:45.229Z,1.00
2019-01-23T15:15:14.808Z,1.00
2019-01-23T15:17:43.717Z,0.90
2019-01-23T15:20:20.765Z,1.00
2019-01-23T15:22:49.169Z,1.00
2019-01-23T15:25:18.641Z,1.00
2019-01-23T15:27:47.324Z,1.00
2019-01-23T15:30:21.687Z,1.00
2019-01-23T15:32:50.443Z,1.00
2019-01-23T15:35:20.178Z,1.00
2019-01-23T15:37:48.749Z,0.90
2019-01-23T15:40:25.673Z,0.90
2019-01-23T15:42:54.102Z,0.90
2019-01-23T15:45:23.073Z,0.90
2019-01-23T15:47:51.687Z,0.80
2019-01-23T15:50:23.684Z,0.80
2019-01-23T15:52:52.488Z,0.80
2019-01-23T15:55:23.051Z,0.80
2019-01-23T15:57:51.585Z,0.80
2019-01-23T16:00:28.219Z,0.80
2019-01-23T16:02:56.932Z,0.80
2019-01-23T16:05:26.543Z,0.90
2019-01-23T16:07:55.084Z,0.90
2019-01-23T16:10:28.440Z,0.90
2019-01-23T16:12:57.394Z,0.90
2019-01-23T16:15:27.707Z,0.90
2019-01-23T16:17:57.486Z,0.90
2019-01-23T16:20:26.880Z,0.90
2019-01-23T16:22:55.480Z,0.80
2019-01-23T16:25:24.244Z,0.80
2019-01-23T16:27:52.747Z,0.80
2019-01-23T16:30:24.546Z,0.80
2019-01-23T16:32:53.536Z,0.80
2019-01-23T16:35:22.279Z,0.80
2019-01-23T16:37:51.661Z,0.80
2019-01-23T16:40:20.358Z,0.80
2019-01-23T16:42:49.156Z,0.80
2019-01-23T16:45:22.528Z,0.90
2019-01-23T16:47:51.552Z,0.90
2019-01-23T16:50:22.691Z,0.90
2019-01-23T16:52:51.393Z,0.90
2019-01-23T16:55:20.123Z,0.80
2019-01-23T16:57:48.924Z,0.80
2019-01-23T17:00:23.041Z,0.80
2019-01-23T17:02:51.435Z,0.80
2019-01-23T17:05:23.344Z,0.80
2019-01-23T17:07:52.537Z,0.80
2019-01-23T17:10:23.631Z,0.80
2019-01-23T17:12:52.248Z,0.80
2019-01-23T17:15:21.093Z,0.80
2019-01-23T17:17:50.600Z,0.80
2019-01-23T17:20:22.336Z,0.80
2019-01-23T17:22:51.497Z,0.80
2019-01-23T17:25:19.983Z,0.80
2019-01-23T17:27:48.920Z,0.80
2019-01-23T17:30:18.793Z,0.80
2019-01-23T17:32:48.318Z,0.80
2019-01-23T17:35:19.773Z,0.80
2019-01-23T17:37:48.545Z,0.80
2019-01-23T17:40:19.194Z,0.90
2019-01-23T17:42:47.937Z,0.80
2019-01-23T17:45:25.002Z,0.90
2019-01-23T17:47:53.992Z,0.90
2019-01-23T17:50:23.796Z,0.90
2019-01-23T17:52:52.703Z,0.90
2019-01-23T17:55:27.187Z,0.90
2019-01-23T17:57:56.545Z,0.90
2019-01-23T18:00:31.348Z,0.90
2019-01-23T18:03:02.493Z,0.90
2019-01-23T18:05:31.313Z,0.90
2019-01-23T18:08:00.253Z,0.90
2019-01-23T18:10:28.767Z,0.90
2019-01-23T18:12:57.396Z,0.90
2019-01-23T18:15:31.745Z,1.00
2019-01-23T18:18:00.588Z,1.00
2019-01-23T18:20:29.743Z,1.00
2019-01-23T18:22:58.365Z,1.00
2019-01-23T18:25:26.834Z,1.00
2019-01-23T18:27:55.653Z,1.00
2019-01-23T18:30:42.687Z,1.00
2019-01-23T18:33:14.461Z,1.00
2019-01-23T18:35:57.721Z,1.00
2019-01-23T18:38:44.185Z,1.00
2019-01-23T18:41:27.533Z,1.00
2019-01-23T18:44:17.092Z,1.00
2019-01-23T18:47:06.408Z,1.00
2019-01-23T18:50:01.842Z,1.00
2019-01-23T18:52:30.917Z,1.00
2019-01-23T18:54:59.500Z,1.00
2019-01-23T18:57:30.282Z,1.00
2019-01-23T18:59:59.308Z,1.00
2019-01-23T19:02:28.119Z,1.00
2019-01-23T19:04:56.988Z,1.00
2019-01-23T19:07:25.485Z,1.00
2019-01-23T19:09:54.214Z,1.00
2019-01-23T19:12:22.837Z,1.00
2019-01-23T19:14:51.437Z,1.00
2019-01-23T19:17:20.993Z,1.00
2019-01-23T19:19:49.473Z,1.00
2019-01-23T19:22:18.214Z,1.00
2019-01-23T19:24:46.658Z,1.00
2019-01-23T19:27:15.094Z,1.00
2019-01-23T19:29:43.625Z,1.00
2019-01-23T19:34:40.705Z,1.00
2019-01-23T19:37:09.325Z,1.00
2019-01-23T19:39:37.799Z,1.00
2019-01-23T19:42:06.371Z,1.00
2019-01-23T19:44:34.935Z,1.00
2019-01-23T19:47:03.720Z,1.00
2019-01-23T19:49:32.418Z,1.00
2019-01-23T19:52:01.001Z,1.00
2019-01-23T19:54:29.831Z,1.00
2019-01-23T19:56:58.783Z,1.00
2019-01-23T19:59:27.898Z,1.00
2019-01-23T20:01:56.403Z,1.00
2019-01-23T20:04:25.356Z,1.00
2019-01-23T20:06:53.890Z,1.00
2019-01-23T20:09:22.743Z,0.90
2019-01-23T20:11:51.234Z,1.00
2019-01-23T20:14:20.122Z,1.00
2019-01-23T20:16:50.088Z,0.90
2019-01-23T20:19:18.658Z,0.90
2019-01-23T20:21:47.140Z,0.90
2019-01-23T20:24:15.629Z,0.90
2019-01-23T20:26:44.326Z,0.90
2019-01-23T20:29:13.118Z,0.90
2019-01-23T20:31:41.560Z,0.90
2019-01-23T20:34:10.262Z,0.90
2019-01-23T20:36:38.777Z,0.90
2019-01-23T20:39:09.964Z,0.90
2019-01-23T20:41:38.612Z,0.90
2019-01-23T20:44:07.503Z,0.90
2019-01-23T20:46:36.327Z,0.90
2019-01-23T20:49:05.581Z,0.90
2019-01-23T20:51:34.439Z,0.90
2019-01-23T20:54:03.223Z,0.90
2019-01-23T20:56:31.755Z,0.90
2019-01-23T20:59:00.526Z,0.90
2019-01-23T21:01:28.973Z,1.00
2019-01-23T21:03:57.751Z,1.00
2019-01-23T21:06:26.825Z,1.00
2019-01-23T21:08:55.376Z,1.00
2019-01-23T21:11:23.837Z,1.00
2019-01-23T21:13:53.625Z,1.00
2019-01-23T21:16:22.155Z,1.00
2019-01-23T21:18:51.007Z,1.00
2019-01-23T21:21:20.723Z,1.00
2019-01-23T21:23:49.489Z,1.00
2019-01-23T21:26:18.316Z,1.00
2019-01-23T21:28:47.091Z,1.10
2019-01-23T21:31:15.632Z,1.10
2019-01-23T21:33:45.557Z,1.10
2019-01-23T21:36:14.181Z,1.10
2019-01-23T21:38:42.662Z,1.10
2019-01-23T21:41:11.114Z,1.10
2019-01-23T21:43:39.623Z,1.20
2019-01-23T21:46:08.024Z,1.20
2019-01-23T21:48:36.533Z,1.10
2019-01-23T21:51:05.527Z,1.10
2019-01-23T21:53:33.932Z,1.10
2019-01-23T21:56:02.348Z,1.00
2019-01-23T21:58:30.842Z,1.00
2019-01-23T22:00:59.410Z,1.00
2019-01-23T22:03:27.977Z,1.00
2019-01-23T22:05:56.430Z,1.00
2019-01-23T22:08:24.871Z,1.00
2019-01-23T22:10:53.575Z,1.00
2019-01-23T22:13:22.297Z,1.00
2019-01-23T22:15:50.790Z,1.10
2019-01-23T22:18:19.289Z,1.00
2019-01-23T22:20:48.243Z,1.00
2019-01-23T22:23:16.897Z,1.00
2019-01-23T22:25:45.342Z,1.00
2019-01-23T22:28:14.045Z,1.00
2019-01-23T22:30:42.473Z,1.00
2019-01-23T22:33:11.019Z,1.00
2019-01-23T22:35:39.500Z,1.00
2019-01-23T22:38:07.992Z,1.00
2019-01-23T22:40:36.642Z,1.00
2019-01-23T22:43:05.396Z,0.90
2019-01-23T22:45:33.893Z,0.90
2019-01-23T22:48:02.322Z,0.90
2019-01-23T22:50:31.087Z,0.90
2019-01-23T22:52:59.922Z,0.90
2019-01-23T22:55:28.576Z,0.90
2019-01-23T22:57:57.033Z,0.90
2019-01-23T23:00:47.052Z,0.90
2019-01-23T23:03:16.002Z,0.90
2019-01-23T23:05:45.374Z,0.90
2019-01-23T23:08:13.865Z,0.90
2019-01-23T23:10:42.312Z,0.80
2019-01-23T23:13:11.054Z,0.90
2019-01-23T23:15:41.132Z,0.80
2019-01-23T23:18:09.999Z,0.80
2019-01-23T23:20:38.660Z,0.80
2019-01-23T23:23:07.431Z,0.80
2019-01-23T23:25:36.119Z,0.80
2019-01-23T23:28:05.127Z,0.80
2019-01-23T23:30:33.782Z,0.80
2019-01-23T23:33:03.189Z,0.80
2019-01-23T23:35:31.931Z,0.80
2019-01-23T23:38:00.567Z,0.80
2019-01-23T23:40:29.012Z,0.80
2019-01-23T23:42:57.734Z,0.80
2019-01-23T23:45:26.389Z,0.90
2019-01-23T23:47:55.149Z,0.90
2019-01-23T23:50:23.627Z,0.90
2019-01-23T23:52:52.343Z,0.90
2019-01-23T23:55:20.793Z,0.90
2019-01-23T23:57:49.486Z,0.90
